SLSB/SRJ METAR and TAF weather

Enter ICAO airport designator
Station Type Date Time Source
SLSB METAR 2021/04/11 15:00 UTC NOAA

SLSB 111500Z 00000KT 9999 SCT020 29/23 Q1013 A2992 HR78 RWY NML


Station Type Date Time Source
SLSB Decoded METAR 2021/04/11 15:00 UTC NOAA

San Borja, Bolivia (SLSB) 14-52S 066-52W
Apr 11, 2021 - 11:00 AM EDT / 2021.04.11 1500 UTC
Wind: Calm:0
Visibility: greater than 7 mile(s):0
Sky conditions: partly cloudy
Temperature: 84 F (29 C)
Dew Point: 73 F (23 C)
Relative Humidity: 70%
Pressure (altimeter): 29.92 in. Hg (1013 hPa)
ob: SLSB 111500Z 00000KT 9999 SCT020 29/23 Q1013 A2992 HR78 RWY NML
cycle: 15

Station Type Date Time Source
SLSB TAF UTC NOAA

Error!

Example: see airport list